• Join FlightAware (Why Join?)
  • Login
  • US Flag 
12:13PM EDT


 

Airport Tracker/Info


-or-


 

Live Flight TrackerFlight Track Log ✈ JBU1083 ✈ 22-Jun-2013 ✈ KJFK - KMCO

Flight Track Log - Related Links

Times and Time Zones

All times are in EDT time to prevent confusion due to time zone crossing. See the JBU1083 flight status page for this flight to view local times or setup timezone preferences in your user account.

Time Position Orientation Groundspeed Altitude Reporting Facility
EDT Latitude Longitude Course Direction KTS MPH feet Rate Location/Type
08:47PM 40.6500 -73.8500 207° Southwest 171 197 1,800  Level New York TRACON
08:48PM 40.6000 -73.9000 217° Southwest 238 274 3,100 2,100 Climbing New York TRACON
08:49PM 40.5333 -73.9500 210° Southwest 272 313 6,100 2,940 Climbing New York TRACON
08:50PM 40.3415 -73.9939 210° Southwest  Level FlightAware Approximate
08:51PM 40.2396 -74.0681 207° Southwest  Level FlightAware Approximate
08:51PM 40.4667 -74.0167 217° Southwest 283 326 9,300  Level New York TRACON
08:52PM 40.1358 -74.1373 207° Southwest  Level FlightAware Approximate
08:53PM 40.0360 -74.2149 207° Southwest  Level FlightAware Approximate
08:53PM 40.3119 -74.1189 207° Southwest 335 386 12,500  Level New York Center
08:54PM 40.2233 -74.1581 199° South 364 419 14,600 1,860 Climbing New York Center
08:55PM 40.0536 -74.2308 198° South 378 435 17,600 1,620 Climbing Washington Center
08:56PM 39.9564 -74.2950 207° Southwest 389 448 19,100 1,500 Climbing Washington Center
08:57PM 39.8678 -74.3831 217° Southwest 394 453 20,700 1,560 Climbing Washington Center
08:58PM 39.7792 -74.4792 220° Southwest 416 479 22,200 1,380 Climbing Washington Center
08:59PM 39.6989 -74.5856 226° Southwest 421 484 23,500 1,140 Climbing Washington Center
09:00PM 39.6144 -74.6972 226° Southwest 426 490 24,500 780 Climbing Washington Center
09:01PM 39.5256 -74.8167 226° Southwest 436 502 25,100 600 Climbing Washington Center
09:02PM 39.4283 -74.9442 225° Southwest 442 509 25,800 600 Climbing Washington Center
09:03PM 39.3331 -75.0631 224° Southwest 463 533 26,400 660 Climbing Washington Center
09:04PM 39.2208 -75.1522 212° Southwest 476 548 27,200 720 Climbing Washington Center
09:05PM 39.1025 -75.2253 206° Southwest 476 548 27,900 780 Climbing Washington Center
09:06PM 38.9817 -75.3033 207° Southwest 481 554 28,800 960 Climbing Washington Center
09:07PM 38.8631 -75.3731 205° Southwest 481 554 29,900 1,200 Climbing Washington Center
09:08PM 38.7422 -75.4425 204° Southwest 481 554 31,300 1,140 Climbing Washington Center
09:09PM 38.6256 -75.5119 205° Southwest 475 547 32,200 720 Climbing Washington Center
09:10PM 38.5067 -75.5811 204° Southwest 470 541 32,800 720 Climbing Washington Center
09:11PM 38.3919 -75.6500 205° Southwest 464 534 33,700 900 Climbing Washington Center
09:12PM 38.2856 -75.7108 204° Southwest 464 534 34,600 780 Climbing Washington Center
09:13PM 38.1708 -75.7767 204° Southwest 459 528 35,300 660 Climbing Washington Center
09:14PM 38.0561 -75.8422 204° Southwest 464 534 36,000 300 Climbing Washington Center
09:15PM 37.9433 -75.9078 205° Southwest 459 528 36,000  Level Washington Center
09:16PM 37.8283 -75.9756 205° Southwest 459 528 36,000 -60 Level Washington Center
09:17PM 37.7031 -76.0511 206° Southwest 459 528 35,900 -60 Descending Washington Center
09:18PM 37.5858 -76.1186 205° Southwest 459 528 35,900  Level Washington Center
09:19PM 37.4897 -76.1678 202° Southwest 459 528 36,000  Climbing Washington Center
09:20PM 37.3622 -76.2372 203° Southwest 459 528 36,000 -60 Level Washington Center
09:21PM 37.2492 -76.3014 204° Southwest 459 528 35,900  Descending Washington Center
09:22PM 37.1342 -76.3683 205° Southwest 459 528 36,000  Climbing Washington Center
09:23PM 37.0189 -76.4322 204° Southwest 459 528 36,000  Level Washington Center
09:24PM 36.9058 -76.4958 204° Southwest 459 528 36,000  Level Washington Center
09:25PM 36.7906 -76.5594 204° Southwest 459 528 36,000  Level Washington Center
09:26PM 36.6794 -76.6278 206° Southwest 459 528 36,000  Level Washington Center
09:27PM 36.5642 -76.6883 203° Southwest 459 528 36,000 -60 Level Washington Center
09:28PM 36.4508 -76.7514 204° Southwest 454 522 35,900  Descending Washington Center
09:29PM 36.3375 -76.8142 204° Southwest 454 522 36,000  Climbing Washington Center
09:30PM 36.2242 -76.8742 203° Southwest 449 517 36,000  Level Washington Center
09:31PM 36.1153 -76.9317 203° Southwest 443 510 36,000  Level Washington Center
09:32PM 36.0017 -76.9939 204° Southwest 443 510 36,000  Level Washington Center
09:33PM 35.8906 -77.0533 203° Southwest 443 510 36,000  Level Washington Center
09:34PM 35.7814 -77.1128 204° Southwest 443 510 36,000  Level Washington Center
09:35PM 35.6636 -77.1797 205° Southwest 429 494 36,000  Level Washington Center
09:36PM 35.5500 -77.2361 202° Southwest 429 494 36,000  Level Washington Center
09:37PM 35.4386 -77.3003 205° Southwest 435 501 36,000  Level Washington Center
09:38PM 35.3294 -77.3564 203° Southwest 440 506 36,000  Level Washington Center
09:39PM 35.2178 -77.4150 203° Southwest 440 506 36,000  Level Washington Center
09:40PM 35.1083 -77.4758 204° Southwest 440 506 36,000  Level Washington Center
09:41PM 34.9931 -77.5214 198° South 440 506 36,000  Level Washington Center
09:42PM 34.8756 -77.5592 195° South 435 501 36,000  Level Washington Center
09:43PM 34.7642 -77.6019 198° South 435 501 36,000  Level Washington Center
09:44PM 34.6489 -77.6394 195° South 430 495 36,000 -60 Level Washington Center
09:45PM 34.5356 -77.6794 196° South 430 495 35,900 -60 Descending Washington Center
09:46PM 34.4181 -77.7169 195° South 430 495 35,900  Level Washington Center
09:47PM 34.3025 -77.7542 195° South 430 495 35,900  Level Washington Center
09:48PM 34.1786 -77.7986 197° South 444 511 36,000  Climbing Washington Center
09:49PM 34.0631 -77.8356 195° South 444 511 36,000  Level Washington Center
09:51PM 33.9244 -77.8797 195° South 426 490 36,000  Level Jacksonville Center
09:52PM 33.8092 -77.9139 194° South 431 496 36,000  Level Jacksonville Center
09:53PM 33.6939 -77.9553 197° South 431 496 36,000  Level Jacksonville Center
09:54PM 33.5642 -78.0000 196° South 436 502 36,000  Level Jacksonville Center
09:55PM 33.4486 -78.0361 195° South 436 502 36,000  Level Jacksonville Center
09:56PM 33.3333 -78.0747 196° South 431 496 36,000  Level Jacksonville Center
09:57PM 33.2158 -78.1108 194° South 431 496 36,000  Level Jacksonville Center
09:58PM 33.0964 -78.1519 196° South 431 496 36,000  Level Jacksonville Center
09:59PM 32.9806 -78.1853 194° South 431 496 36,000  Level Jacksonville Center
10:00PM 32.8631 -78.2236 195° South 431 496 36,000  Level Jacksonville Center
10:01PM 32.7456 -78.2642 196° South 431 496 36,000  Level Jacksonville Center
10:02PM 32.6303 -78.3022 196° South 431 496 36,000  Level Jacksonville Center
10:03PM 32.5147 -78.3378 195° South 431 496 36,000 -60 Level Jacksonville Center
10:04PM 32.3969 -78.3731 194° South 431 496 35,900 -60 Descending Jacksonville Center
10:05PM 32.2917 -78.4103 197° South 436 502 35,900  Level Jacksonville Center
10:06PM 32.1742 -78.4478 195° South 436 502 35,900  Level Jacksonville Center
10:07PM 32.0567 -78.4878 196° South 436 502 36,000  Climbing Jacksonville Center
10:08PM 31.9389 -78.5253 195° South 436 502 36,000 -60 Level Jacksonville Center
10:09PM 31.8233 -78.5625 195° South 431 496 35,900 -60 Descending Jacksonville Center
10:10PM 31.7075 -78.5950 193° South 436 502 35,900  Level Jacksonville Center
10:11PM 31.5897 -78.6344 196° South 436 502 36,000  Climbing Jacksonville Center
10:12PM 31.4719 -78.6714 195° South 436 502 36,000  Level Jacksonville Center
10:13PM 31.3542 -78.7061 194° South 436 502 36,000 -60 Level Jacksonville Center
10:14PM 31.2364 -78.7453 196° South 436 502 35,900 -60 Descending Jacksonville Center
10:15PM 31.1208 -78.7794 194° South 436 502 35,900  Level Jacksonville Center
10:16PM 30.9986 -78.8164 195° South 436 502 36,000  Climbing Jacksonville Center
10:17PM 30.8767 -78.8531 194° South 436 502 36,000  Level Jacksonville Center
10:18PM 30.7694 -78.8914 197° South 436 502 36,000  Level Jacksonville Center
10:20PM 30.5086 -78.9692 194° South 454 522 36,000  Level Miami Center
10:21PM 30.3892 -79.0075 195° South 449 517 36,000 -60 Level Miami Center
10:22PM 30.2758 -79.0581 201° Southwest 449 517 35,900  Descending Miami Center
10:23PM 30.1542 -79.1083 200° South 449 517 36,000  Climbing Miami Center
10:24PM 30.0431 -79.1564 201° Southwest 444 511 36,000  Level Miami Center
10:25PM 29.9358 -79.2092 203° Southwest 435 501 36,000  Level Miami Center
10:26PM 29.8244 -79.2569 200° South 429 494 36,000  Level Miami Center
10:27PM 29.7111 -79.3044 200° South 434 499 36,000  Level Miami Center
10:28PM 29.6058 -79.3619 205° Southwest 434 499 36,000 -60 Level Miami Center
10:29PM 29.4883 -79.3997 196° South 434 499 35,900 -1,080 Descending Miami Center
10:30PM 29.3789 -79.4494 202° Southwest 434 499 33,900 -2,100 Descending Miami Center
10:31PM 29.2736 -79.5064 205° Southwest 428 493 31,700 -2,220 Descending Miami Center
10:32PM 29.1661 -79.5706 208° Southwest 428 493 29,500 -2,220 Descending Miami Center
10:33PM 29.0847 -79.6706 227° Southwest 428 493 27,400 -2,100 Descending Miami Center
10:34PM 29.0261 -79.7878 240° Southwest 422 486 25,300 -2,100 Descending Miami Center
10:35PM 28.9903 -79.9078 251° West 411 473 23,200 -2,160 Descending Miami Center
10:36PM 28.9542 -80.0300 251° West 411 473 21,100 -2,040 Descending Miami Center
10:37PM 28.9183 -80.1428 250° West 399 459 19,100 -1,920 Descending Miami Center
10:38PM 28.8822 -80.2533 250° West 388 447 17,300 -1,980 Descending Miami Center
10:39PM 28.8333 -80.4167 251° West 348 400 14,200 -1,320 Descending Orlando TRACON
10:40PM 28.8167 -80.5333 261° West 364 419 14,000 -360 Descending Orlando TRACON
10:41PM 28.8000 -80.6500 261° West 363 418 13,500 -1,320 Descending Orlando TRACON
10:42PM 28.7833 -80.7500 259° West 355 409 11,400 -1,620 Descending Orlando TRACON
10:43PM 28.7667 -80.8667 261° West 333 383 10,300 -1,200 Descending Orlando TRACON
10:44PM 28.7500 -80.9500 257° West 297 342 9,100 -1,200 Descending Orlando TRACON
10:45PM 28.7333 -81.0500 259° West 296 341 8,000 -960 Descending Orlando TRACON
10:46PM 28.7167 -81.1333 257° West 288 331 7,100 -1,020 Descending Orlando TRACON
10:47PM 28.6667 -81.2000 229° Southwest 277 319 5,900 -1,260 Descending Orlando TRACON
10:48PM 28.6167 -81.2667 229° Southwest 234 269 4,600 -1,440 Descending Orlando TRACON
10:49PM 28.5833 -81.3167 233° Southwest 195 224 3,100 -1,080 Descending Orlando TRACON
10:50PM 28.5333 -81.3333 196° South 152 175 2,400 -1,020 Descending Orlando TRACON
10:51PM 28.5000 -81.3333 180° South 150 173 1,000 -1,080 Descending Orlando TRACON
10:52PM 28.4500 -81.3333 180° South 138 159 300 -720 Descending Orlando TRACON